<?xml version="1.0" encoding="UTF-8" standalone="no" ?>
<gpx xmlns="http://www.topografix.com/GPX/1/1" xmlns:xsi="http://www.w3.org/2001/XMLSchema-instance" xsi:schemaLocation="http://www.topografix.com/GPX/1/1 http://www.topografix.com/GPX/1/1/gpx.xsd" version="1.1" creator="VisuGPX - https://www.visugpx.com">
  <metadata>
    <name>De Meillerie à Salvigny</name>
    <desc><![CDATA[Randonnée en Haute-Savoie]]></desc>
  </metadata>
  <trk>
    <name><![CDATA[ACTIVE LOG: 28 JUL 2015 10:01]]></name>
    <trkseg>
      <trkpt lat="46.24543" lon="6.7774">
        <ele>1732.43</ele>
        <time>2015-07-28T08:02:49Z</time>
      </trkpt>
      <trkpt lat="46.24541" lon="6.77753">
        <ele>1733.88</ele>
        <time>2015-07-28T08:03:54Z</time>
      </trkpt>
      <trkpt lat="46.24485" lon="6.77803">
        <ele>1734.84</ele>
        <time>2015-07-28T08:04:59Z</time>
      </trkpt>
      <trkpt lat="46.24429" lon="6.77832">
        <ele>1732.91</ele>
        <time>2015-07-28T08:06:04Z</time>
      </trkpt>
      <trkpt lat="46.24359" lon="6.77885">
        <ele>1730.51</ele>
        <time>2015-07-28T08:07:09Z</time>
      </trkpt>
      <trkpt lat="46.24285" lon="6.77928">
        <ele>1727.63</ele>
        <time>2015-07-28T08:08:14Z</time>
      </trkpt>
      <trkpt lat="46.24209" lon="6.77976">
        <ele>1726.67</ele>
        <time>2015-07-28T08:09:19Z</time>
      </trkpt>
      <trkpt lat="46.24139" lon="6.78041">
        <ele>1723.3</ele>
        <time>2015-07-28T08:10:24Z</time>
      </trkpt>
      <trkpt lat="46.24063" lon="6.7809">
        <ele>1720.42</ele>
        <time>2015-07-28T08:11:29Z</time>
      </trkpt>
      <trkpt lat="46.23998" lon="6.7809">
        <ele>1719.46</ele>
        <time>2015-07-28T08:12:34Z</time>
      </trkpt>
      <trkpt lat="46.23927" lon="6.78055">
        <ele>1719.46</ele>
        <time>2015-07-28T08:13:39Z</time>
      </trkpt>
      <trkpt lat="46.2385" lon="6.78022">
        <ele>1716.09</ele>
        <time>2015-07-28T08:14:44Z</time>
      </trkpt>
      <trkpt lat="46.23772" lon="6.77999">
        <ele>1715.13</ele>
        <time>2015-07-28T08:15:49Z</time>
      </trkpt>
      <trkpt lat="46.23695" lon="6.77967">
        <ele>1711.28</ele>
        <time>2015-07-28T08:16:54Z</time>
      </trkpt>
      <trkpt lat="46.23617" lon="6.77935">
        <ele>1709.84</ele>
        <time>2015-07-28T08:17:59Z</time>
      </trkpt>
      <trkpt lat="46.23542" lon="6.77889">
        <ele>1709.84</ele>
        <time>2015-07-28T08:19:04Z</time>
      </trkpt>
      <trkpt lat="46.235" lon="6.77797">
        <ele>1706.48</ele>
        <time>2015-07-28T08:20:09Z</time>
      </trkpt>
      <trkpt lat="46.2345" lon="6.77765">
        <ele>1706.48</ele>
        <time>2015-07-28T08:21:14Z</time>
      </trkpt>
      <trkpt lat="46.23383" lon="6.77744">
        <ele>1695.9</ele>
        <time>2015-07-28T08:22:19Z</time>
      </trkpt>
      <trkpt lat="46.23312" lon="6.77711">
        <ele>1693.5</ele>
        <time>2015-07-28T08:23:24Z</time>
      </trkpt>
      <trkpt lat="46.23236" lon="6.77739">
        <ele>1692.06</ele>
        <time>2015-07-28T08:24:29Z</time>
      </trkpt>
      <trkpt lat="46.23158" lon="6.77691">
        <ele>1695.42</ele>
        <time>2015-07-28T08:25:34Z</time>
      </trkpt>
      <trkpt lat="46.23106" lon="6.77603">
        <ele>1691.1</ele>
        <time>2015-07-28T08:26:39Z</time>
      </trkpt>
      <trkpt lat="46.23069" lon="6.77492">
        <ele>1683.41</ele>
        <time>2015-07-28T08:27:44Z</time>
      </trkpt>
      <trkpt lat="46.23003" lon="6.77422">
        <ele>1678.12</ele>
        <time>2015-07-28T08:28:49Z</time>
      </trkpt>
      <trkpt lat="46.22946" lon="6.77356">
        <ele>1675.23</ele>
        <time>2015-07-28T08:29:54Z</time>
      </trkpt>
      <trkpt lat="46.22917" lon="6.77314">
        <ele>1678.12</ele>
        <time>2015-07-28T08:30:59Z</time>
      </trkpt>
      <trkpt lat="46.22889" lon="6.77296">
        <ele>1681</ele>
        <time>2015-07-28T08:32:04Z</time>
      </trkpt>
      <trkpt lat="46.22823" lon="6.77287">
        <ele>1684.85</ele>
        <time>2015-07-28T08:33:09Z</time>
      </trkpt>
      <trkpt lat="46.2279" lon="6.7728">
        <ele>1685.81</ele>
        <time>2015-07-28T08:34:14Z</time>
      </trkpt>
      <trkpt lat="46.22738" lon="6.77304">
        <ele>1691.58</ele>
        <time>2015-07-28T08:35:19Z</time>
      </trkpt>
      <trkpt lat="46.22709" lon="6.77313">
        <ele>1692.54</ele>
        <time>2015-07-28T08:36:24Z</time>
      </trkpt>
      <trkpt lat="46.22658" lon="6.77352">
        <ele>1695.42</ele>
        <time>2015-07-28T08:37:29Z</time>
      </trkpt>
      <trkpt lat="46.22601" lon="6.77398">
        <ele>1686.77</ele>
        <time>2015-07-28T08:38:34Z</time>
      </trkpt>
      <trkpt lat="46.22556" lon="6.77419">
        <ele>1692.54</ele>
        <time>2015-07-28T08:39:39Z</time>
      </trkpt>
      <trkpt lat="46.22515" lon="6.77417">
        <ele>1698.31</ele>
        <time>2015-07-28T08:40:44Z</time>
      </trkpt>
      <trkpt lat="46.22473" lon="6.77402">
        <ele>1707.92</ele>
        <time>2015-07-28T08:41:49Z</time>
      </trkpt>
      <trkpt lat="46.22441" lon="6.7741">
        <ele>1719.94</ele>
        <time>2015-07-28T08:42:54Z</time>
      </trkpt>
      <trkpt lat="46.22388" lon="6.77415">
        <ele>1723.3</ele>
        <time>2015-07-28T08:43:59Z</time>
      </trkpt>
      <trkpt lat="46.22336" lon="6.77446">
        <ele>1729.07</ele>
        <time>2015-07-28T08:45:04Z</time>
      </trkpt>
      <trkpt lat="46.22298" lon="6.77473">
        <ele>1739.64</ele>
        <time>2015-07-28T08:46:09Z</time>
      </trkpt>
      <trkpt lat="46.22258" lon="6.77475">
        <ele>1750.22</ele>
        <time>2015-07-28T08:47:14Z</time>
      </trkpt>
      <trkpt lat="46.22224" lon="6.77462">
        <ele>1758.39</ele>
        <time>2015-07-28T08:48:19Z</time>
      </trkpt>
      <trkpt lat="46.22185" lon="6.77452">
        <ele>1768.96</ele>
        <time>2015-07-28T08:49:24Z</time>
      </trkpt>
      <trkpt lat="46.22148" lon="6.77435">
        <ele>1780.5</ele>
        <time>2015-07-28T08:50:29Z</time>
      </trkpt>
      <trkpt lat="46.22147" lon="6.77386">
        <ele>1789.63</ele>
        <time>2015-07-28T08:51:34Z</time>
      </trkpt>
      <trkpt lat="46.22159" lon="6.77336">
        <ele>1796.36</ele>
        <time>2015-07-28T08:52:39Z</time>
      </trkpt>
      <trkpt lat="46.22167" lon="6.77314">
        <ele>1799.24</ele>
        <time>2015-07-28T08:53:44Z</time>
      </trkpt>
      <trkpt lat="46.22166" lon="6.77313">
        <ele>1799.24</ele>
        <time>2015-07-28T08:54:49Z</time>
      </trkpt>
      <trkpt lat="46.22166" lon="6.77314">
        <ele>1799.73</ele>
        <time>2015-07-28T08:55:54Z</time>
      </trkpt>
      <trkpt lat="46.22159" lon="6.77293">
        <ele>1798.76</ele>
        <time>2015-07-28T08:56:59Z</time>
      </trkpt>
      <trkpt lat="46.22123" lon="6.77277">
        <ele>1795.88</ele>
        <time>2015-07-28T08:58:04Z</time>
      </trkpt>
      <trkpt lat="46.22115" lon="6.77291">
        <ele>1796.84</ele>
        <time>2015-07-28T08:59:09Z</time>
      </trkpt>
      <trkpt lat="46.22084" lon="6.77309">
        <ele>1797.32</ele>
        <time>2015-07-28T09:00:14Z</time>
      </trkpt>
      <trkpt lat="46.22017" lon="6.77365">
        <ele>1798.28</ele>
        <time>2015-07-28T09:01:19Z</time>
      </trkpt>
      <trkpt lat="46.21953" lon="6.77428">
        <ele>1803.57</ele>
        <time>2015-07-28T09:02:24Z</time>
      </trkpt>
      <trkpt lat="46.21913" lon="6.77496">
        <ele>1808.86</ele>
        <time>2015-07-28T09:03:29Z</time>
      </trkpt>
      <trkpt lat="46.2188" lon="6.7758">
        <ele>1815.59</ele>
        <time>2015-07-28T09:04:34Z</time>
      </trkpt>
      <trkpt lat="46.21839" lon="6.77671">
        <ele>1816.07</ele>
        <time>2015-07-28T09:05:39Z</time>
      </trkpt>
      <trkpt lat="46.21792" lon="6.77753">
        <ele>1817.99</ele>
        <time>2015-07-28T09:06:44Z</time>
      </trkpt>
      <trkpt lat="46.21725" lon="6.77816">
        <ele>1819.91</ele>
        <time>2015-07-28T09:07:49Z</time>
      </trkpt>
      <trkpt lat="46.21657" lon="6.77857">
        <ele>1823.28</ele>
        <time>2015-07-28T09:08:54Z</time>
      </trkpt>
      <trkpt lat="46.21599" lon="6.77915">
        <ele>1827.6</ele>
        <time>2015-07-28T09:09:59Z</time>
      </trkpt>
      <trkpt lat="46.2156" lon="6.78006">
        <ele>1826.16</ele>
        <time>2015-07-28T09:11:04Z</time>
      </trkpt>
      <trkpt lat="46.21536" lon="6.78108">
        <ele>1828.56</ele>
        <time>2015-07-28T09:12:09Z</time>
      </trkpt>
      <trkpt lat="46.2152" lon="6.7821">
        <ele>1828.08</ele>
        <time>2015-07-28T09:13:14Z</time>
      </trkpt>
      <trkpt lat="46.21481" lon="6.78289">
        <ele>1827.6</ele>
        <time>2015-07-28T09:14:19Z</time>
      </trkpt>
      <trkpt lat="46.21419" lon="6.78363">
        <ele>1828.56</ele>
        <time>2015-07-28T09:15:24Z</time>
      </trkpt>
      <trkpt lat="46.21348" lon="6.78431">
        <ele>1828.08</ele>
        <time>2015-07-28T09:16:29Z</time>
      </trkpt>
      <trkpt lat="46.21277" lon="6.78485">
        <ele>1827.6</ele>
        <time>2015-07-28T09:17:34Z</time>
      </trkpt>
      <trkpt lat="46.2124" lon="6.78564">
        <ele>1835.29</ele>
        <time>2015-07-28T09:18:39Z</time>
      </trkpt>
      <trkpt lat="46.2128" lon="6.78546">
        <ele>1836.74</ele>
        <time>2015-07-28T09:19:36Z</time>
      </trkpt>
    </trkseg>
  </trk>
</gpx>